Terminal Aerodrome Forecast
Issued by NWS

Current Version | Previous Version | Text Only | Print | Product List | Glossary On
Versions: 1 2 3 4 5 6 7 8 9 10 11 12 13 14 15 16 17 18 19 20 21 22 23 24 25
445
FTUS44 KBMX 280119 AAA
TAFTCL
TAF AMD
KTCL 280119Z 2801/2824 13008KT P6SM OVC009
     FM280400 12003KT 6SM BR BKN007 OVC020
     FM280900 13004KT 2SM BR OVC004
     FM281500 15006KT P6SM VCSH OVC007
     FM281900 18010KT P6SM SCT007 OVC013=

USA.gov is the U.S. government's official web portal to all federal, state and local government web resources and services.